Terminal Aerodrome Forecast
Issued by NWS Goodland, KS

Home | Current Version | Previous Version | Text Only | Print | Product List | Glossary On
Versions: 1 2 3 4 5 6 7 8 9 10 11 12
000
FTUS43 KGLD 251123
TAFGLD
TAF
KGLD 251123Z 2512/2612 28005KT P6SM SKC
     FM251700 35007KT P6SM SKC
     FM252100 VRB05KT P6SM FEW250
     FM260500 17007KT P6SM SKC=

USA.gov is the U.S. government's official web portal to all federal, state and local government web resources and services.